sensor_id;sensor_type;location;lat;lon;timestamp;pressure;altitude;pressure_sealevel;temperature
11321;BMP180;5715;48.234;14.320;2022-10-15T00:00:11;98252.00;;;19.60
11321;BMP180;5715;48.234;14.320;2022-10-15T00:02:58;98248.00;;;19.80
11321;BMP180;5715;48.234;14.320;2022-10-15T00:05:46;98245.00;;;19.80
11321;BMP180;5715;48.234;14.320;2022-10-15T00:08:33;98253.00;;;19.90
11321;BMP180;5715;48.234;14.320;2022-10-15T00:11:25;98250.00;;;19.90
11321;BMP180;5715;48.234;14.320;2022-10-15T00:14:13;98241.00;;;20.10
11321;BMP180;5715;48.234;14.320;2022-10-15T00:17:01;98243.00;;;20.10
11321;BMP180;5715;48.234;14.320;2022-10-15T00:19:48;98237.00;;;19.90
11321;BMP180;5715;48.234;14.320;2022-10-15T00:22:36;98241.00;;;19.90
11321;BMP180;5715;48.234;14.320;2022-10-15T00:25:24;98243.00;;;19.50
11321;BMP180;5715;48.234;14.320;2022-10-15T00:28:11;98239.00;;;19.70
11321;BMP180;5715;48.234;14.320;2022-10-15T00:31:05;98242.00;;;19.80
11321;BMP180;5715;48.234;14.320;2022-10-15T00:33:56;98238.00;;;20.10
11321;BMP180;5715;48.234;14.320;2022-10-15T00:36:44;98236.00;;;20.00
11321;BMP180;5715;48.234;14.320;2022-10-15T00:39:32;98234.00;;;20.10
11321;BMP180;5715;48.234;14.320;2022-10-15T00:42:19;98238.00;;;20.00
11321;BMP180;5715;48.234;14.320;2022-10-15T00:45:12;98226.00;;;20.20
11321;BMP180;5715;48.234;14.320;2022-10-15T00:48:01;98227.00;;;20.20
11321;BMP180;5715;48.234;14.320;2022-10-15T00:50:49;98223.00;;;20.20
11321;BMP180;5715;48.234;14.320;2022-10-15T00:53:36;98221.00;;;20.10
11321;BMP180;5715;48.234;14.320;2022-10-15T00:56:26;98214.00;;;20.20
11321;BMP180;5715;48.234;14.320;2022-10-15T00:59:17;98209.00;;;20.20
11321;BMP180;5715;48.234;14.320;2022-10-15T01:02:08;98212.00;;;20.20
11321;BMP180;5715;48.234;14.320;2022-10-15T01:04:57;98214.00;;;20.30
11321;BMP180;5715;48.234;14.320;2022-10-15T01:07:44;98198.00;;;20.30
11321;BMP180;5715;48.234;14.320;2022-10-15T01:17:39;98183.00;;;20.10
11321;BMP180;5715;48.234;14.320;2022-10-15T01:27:31;98167.00;;;19.80
11321;BMP180;5715;48.234;14.320;2022-10-15T01:30:34;98168.00;;;19.50
11321;BMP180;5715;48.234;14.320;2022-10-15T01:33:46;98162.00;;;19.60
11321;BMP180;5715;48.234;14.320;2022-10-15T01:36:51;98151.00;;;19.90
11321;BMP180;5715;48.234;14.320;2022-10-15T01:39:53;98156.00;;;19.90
11321;BMP180;5715;48.234;14.320;2022-10-15T01:43:00;98147.00;;;19.80
11321;BMP180;5715;48.234;14.320;2022-10-15T01:45:55;98144.00;;;20.00
11321;BMP180;5715;48.234;14.320;2022-10-15T01:48:44;98149.00;;;20.00
11321;BMP180;5715;48.234;14.320;2022-10-15T01:51:36;98150.00;;;20.00
11321;BMP180;5715;48.234;14.320;2022-10-15T01:54:26;98141.00;;;20.00
11321;BMP180;5715;48.234;14.320;2022-10-15T01:57:18;98151.00;;;19.90
11321;BMP180;5715;48.234;14.320;2022-10-15T02:00:08;98147.00;;;19.90
11321;BMP180;5715;48.234;14.320;2022-10-15T02:03:03;98138.00;;;19.90
11321;BMP180;5715;48.234;14.320;2022-10-15T02:06:07;98135.00;;;20.10
11321;BMP180;5715;48.234;14.320;2022-10-15T02:09:26;98127.00;;;19.90
11321;BMP180;5715;48.234;14.320;2022-10-15T02:16:02;98123.00;;;19.90
11321;BMP180;5715;48.234;14.320;2022-10-15T02:19:05;98129.00;;;19.90
11321;BMP180;5715;48.234;14.320;2022-10-15T02:22:12;98122.00;;;20.00
11321;BMP180;5715;48.234;14.320;2022-10-15T02:25:14;98119.00;;;20.00
11321;BMP180;5715;48.234;14.320;2022-10-15T02:28:04;98117.00;;;19.90
11321;BMP180;5715;48.234;14.320;2022-10-15T02:30:55;98108.00;;;19.70
11321;BMP180;5715;48.234;14.320;2022-10-15T02:33:44;98114.00;;;19.90
11321;BMP180;5715;48.234;14.320;2022-10-15T02:36:33;98119.00;;;19.90
11321;BMP180;5715;48.234;14.320;2022-10-15T02:39:23;98115.00;;;20.10
11321;BMP180;5715;48.234;14.320;2022-10-15T02:42:11;98115.00;;;19.90
11321;BMP180;5715;48.234;14.320;2022-10-15T02:45:00;98116.00;;;19.90
11321;BMP180;5715;48.234;14.320;2022-10-15T02:47:47;98112.00;;;19.80
11321;BMP180;5715;48.234;14.320;2022-10-15T02:50:35;98104.00;;;20.00
11321;BMP180;5715;48.234;14.320;2022-10-15T02:53:22;98098.00;;;20.00
11321;BMP180;5715;48.234;14.320;2022-10-15T02:56:10;98093.00;;;20.00
11321;BMP180;5715;48.234;14.320;2022-10-15T02:58:57;98098.00;;;20.00
11321;BMP180;5715;48.234;14.320;2022-10-15T03:01:45;98083.00;;;20.00
11321;BMP180;5715;48.234;14.320;2022-10-15T03:04:33;98085.00;;;20.00
11321;BMP180;5715;48.234;14.320;2022-10-15T03:07:20;98084.00;;;19.90
11321;BMP180;5715;48.234;14.320;2022-10-15T03:10:08;98091.00;;;20.00
11321;BMP180;5715;48.234;14.320;2022-10-15T03:13:02;98075.00;;;20.00
11321;BMP180;5715;48.234;14.320;2022-10-15T03:15:50;98074.00;;;20.00
11321;BMP180;5715;48.234;14.320;2022-10-15T03:18:38;98076.00;;;20.10
11321;BMP180;5715;48.234;14.320;2022-10-15T03:21:27;98069.00;;;20.10
11321;BMP180;5715;48.234;14.320;2022-10-15T03:24:17;98069.00;;;19.90
11321;BMP180;5715;48.234;14.320;2022-10-15T03:27:04;98075.00;;;20.00
11321;BMP180;5715;48.234;14.320;2022-10-15T03:29:52;98069.00;;;20.00
11321;BMP180;5715;48.234;14.320;2022-10-15T03:32:39;98070.00;;;20.00
11321;BMP180;5715;48.234;14.320;2022-10-15T03:35:27;98069.00;;;20.00
11321;BMP180;5715;48.234;14.320;2022-10-15T03:38:14;98079.00;;;20.10
11321;BMP180;5715;48.234;14.320;2022-10-15T03:41:02;98075.00;;;19.90
11321;BMP180;5715;48.234;14.320;2022-10-15T03:43:49;98077.00;;;20.00
11321;BMP180;5715;48.234;14.320;2022-10-15T03:46:37;98075.00;;;20.00
11321;BMP180;5715;48.234;14.320;2022-10-15T03:49:24;98070.00;;;20.10
11321;BMP180;5715;48.234;14.320;2022-10-15T03:52:13;98068.00;;;20.10
11321;BMP180;5715;48.234;14.320;2022-10-15T03:55:00;98068.00;;;20.10
11321;BMP180;5715;48.234;14.320;2022-10-15T03:57:48;98066.00;;;20.10
11321;BMP180;5715;48.234;14.320;2022-10-15T04:00:35;98084.00;;;20.00
11321;BMP180;5715;48.234;14.320;2022-10-15T04:03:23;98077.00;;;19.90
11321;BMP180;5715;48.234;14.320;2022-10-15T04:06:10;98075.00;;;20.00
11321;BMP180;5715;48.234;14.320;2022-10-15T04:08:58;98074.00;;;19.90
11321;BMP180;5715;48.234;14.320;2022-10-15T04:11:46;98080.00;;;20.00
11321;BMP180;5715;48.234;14.320;2022-10-15T04:14:34;98083.00;;;20.00
11321;BMP180;5715;48.234;14.320;2022-10-15T04:17:21;98093.00;;;19.90
11321;BMP180;5715;48.234;14.320;2022-10-15T04:20:09;98096.00;;;20.00
11321;BMP180;5715;48.234;14.320;2022-10-15T04:22:57;98114.00;;;19.90
11321;BMP180;5715;48.234;14.320;2022-10-15T04:25:44;98104.00;;;19.70
11321;BMP180;5715;48.234;14.320;2022-10-15T04:28:33;98099.00;;;19.80
11321;BMP180;5715;48.234;14.320;2022-10-15T04:31:21;98104.00;;;19.80
11321;BMP180;5715;48.234;14.320;2022-10-15T04:34:08;98102.00;;;19.80
11321;BMP180;5715;48.234;14.320;2022-10-15T04:36:56;98110.00;;;19.80
11321;BMP180;5715;48.234;14.320;2022-10-15T04:39:43;98101.00;;;19.80
11321;BMP180;5715;48.234;14.320;2022-10-15T04:42:31;98099.00;;;19.80
11321;BMP180;5715;48.234;14.320;2022-10-15T04:45:18;98102.00;;;19.80
11321;BMP180;5715;48.234;14.320;2022-10-15T04:48:06;98109.00;;;19.80
11321;BMP180;5715;48.234;14.320;2022-10-15T04:50:53;98105.00;;;19.80
11321;BMP180;5715;48.234;14.320;2022-10-15T04:53:41;98100.00;;;19.80
11321;BMP180;5715;48.234;14.320;2022-10-15T04:56:29;98097.00;;;19.80
11321;BMP180;5715;48.234;14.320;2022-10-15T04:59:16;98096.00;;;19.70
11321;BMP180;5715;48.234;14.320;2022-10-15T05:02:04;98095.00;;;19.30
11321;BMP180;5715;48.234;14.320;2022-10-15T05:04:51;98105.00;;;19.40
11321;BMP180;5715;48.234;14.320;2022-10-15T05:07:39;98103.00;;;19.50
11321;BMP180;5715;48.234;14.320;2022-10-15T05:10:27;98096.00;;;19.60
11321;BMP180;5715;48.234;14.320;2022-10-15T05:13:14;98095.00;;;19.70
11321;BMP180;5715;48.234;14.320;2022-10-15T05:19:04;98102.00;;;19.70
11321;BMP180;5715;48.234;14.320;2022-10-15T05:21:52;98093.00;;;19.70
11321;BMP180;5715;48.234;14.320;2022-10-15T05:24:39;98103.00;;;19.70
11321;BMP180;5715;48.234;14.320;2022-10-15T05:27:27;98109.00;;;19.80
11321;BMP180;5715;48.234;14.320;2022-10-15T05:30:14;98106.00;;;19.80
11321;BMP180;5715;48.234;14.320;2022-10-15T05:33:02;98109.00;;;19.90
11321;BMP180;5715;48.234;14.320;2022-10-15T05:35:49;98117.00;;;19.60
11321;BMP180;5715;48.234;14.320;2022-10-15T05:38:37;98121.00;;;19.70
11321;BMP180;5715;48.234;14.320;2022-10-15T05:41:26;98116.00;;;19.70
11321;BMP180;5715;48.234;14.320;2022-10-15T05:44:14;98115.00;;;19.70
11321;BMP180;5715;48.234;14.320;2022-10-15T05:47:02;98116.00;;;19.70
11321;BMP180;5715;48.234;14.320;2022-10-15T05:49:49;98115.00;;;19.80
11321;BMP180;5715;48.234;14.320;2022-10-15T05:52:37;98118.00;;;20.10
11321;BMP180;5715;48.234;14.320;2022-10-15T05:55:24;98123.00;;;20.10
11321;BMP180;5715;48.234;14.320;2022-10-15T05:58:12;98124.00;;;20.00
11321;BMP180;5715;48.234;14.320;2022-10-15T06:01:03;98128.00;;;20.10
11321;BMP180;5715;48.234;14.320;2022-10-15T06:03:51;98127.00;;;20.10
11321;BMP180;5715;48.234;14.320;2022-10-15T06:06:38;98125.00;;;20.20
11321;BMP180;5715;48.234;14.320;2022-10-15T06:09:27;98129.00;;;20.20
11321;BMP180;5715;48.234;14.320;2022-10-15T06:12:14;98134.00;;;20.20
11321;BMP180;5715;48.234;14.320;2022-10-15T06:15:02;98141.00;;;20.20
11321;BMP180;5715;48.234;14.320;2022-10-15T06:17:52;98148.00;;;20.10
11321;BMP180;5715;48.234;14.320;2022-10-15T06:20:42;98148.00;;;20.20
11321;BMP180;5715;48.234;14.320;2022-10-15T06:23:29;98148.00;;;20.10
11321;BMP180;5715;48.234;14.320;2022-10-15T06:26:17;98149.00;;;20.30
11321;BMP180;5715;48.234;14.320;2022-10-15T06:29:04;98148.00;;;20.30
11321;BMP180;5715;48.234;14.320;2022-10-15T06:31:52;98155.00;;;20.40
11321;BMP180;5715;48.234;14.320;2022-10-15T06:34:39;98148.00;;;20.40
11321;BMP180;5715;48.234;14.320;2022-10-15T06:37:28;98156.00;;;20.40
11321;BMP180;5715;48.234;14.320;2022-10-15T06:40:16;98146.00;;;20.50
11321;BMP180;5715;48.234;14.320;2022-10-15T06:43:09;98144.00;;;20.70
11321;BMP180;5715;48.234;14.320;2022-10-15T06:45:58;98149.00;;;20.40
11321;BMP180;5715;48.234;14.320;2022-10-15T06:48:46;98154.00;;;20.50
11321;BMP180;5715;48.234;14.320;2022-10-15T06:51:34;98156.00;;;20.50
11321;BMP180;5715;48.234;14.320;2022-10-15T06:54:23;98157.00;;;20.50
11321;BMP180;5715;48.234;14.320;2022-10-15T06:57:11;98158.00;;;20.50
11321;BMP180;5715;48.234;14.320;2022-10-15T06:59:59;98159.00;;;20.50
11321;BMP180;5715;48.234;14.320;2022-10-15T07:02:47;98159.00;;;20.50
11321;BMP180;5715;48.234;14.320;2022-10-15T07:05:35;98159.00;;;20.40
11321;BMP180;5715;48.234;14.320;2022-10-15T07:08:24;98160.00;;;20.50
11321;BMP180;5715;48.234;14.320;2022-10-15T07:11:11;98171.00;;;20.50
11321;BMP180;5715;48.234;14.320;2022-10-15T07:13:59;98170.00;;;20.50
11321;BMP180;5715;48.234;14.320;2022-10-15T07:16:46;98167.00;;;20.50
11321;BMP180;5715;48.234;14.320;2022-10-15T07:19:34;98171.00;;;20.60
11321;BMP180;5715;48.234;14.320;2022-10-15T07:22:21;98172.00;;;20.60
11321;BMP180;5715;48.234;14.320;2022-10-15T07:25:09;98179.00;;;20.50
11321;BMP180;5715;48.234;14.320;2022-10-15T07:27:57;98179.00;;;20.50
11321;BMP180;5715;48.234;14.320;2022-10-15T07:30:45;98175.00;;;20.60
11321;BMP180;5715;48.234;14.320;2022-10-15T07:33:33;98180.00;;;20.70
11321;BMP180;5715;48.234;14.320;2022-10-15T07:36:21;98188.00;;;20.80
11321;BMP180;5715;48.234;14.320;2022-10-15T07:39:09;98176.00;;;20.70
11321;BMP180;5715;48.234;14.320;2022-10-15T07:41:57;98175.00;;;20.70
11321;BMP180;5715;48.234;14.320;2022-10-15T07:44:44;98186.00;;;20.80
11321;BMP180;5715;48.234;14.320;2022-10-15T07:47:32;98181.00;;;20.80
11321;BMP180;5715;48.234;14.320;2022-10-15T07:50:20;98176.00;;;20.80
11321;BMP180;5715;48.234;14.320;2022-10-15T07:53:07;98181.00;;;20.80
11321;BMP180;5715;48.234;14.320;2022-10-15T07:56:00;98178.00;;;20.80
11321;BMP180;5715;48.234;14.320;2022-10-15T07:58:48;98176.00;;;20.80
11321;BMP180;5715;48.234;14.320;2022-10-15T08:01:38;98174.00;;;20.90
11321;BMP180;5715;48.234;14.320;2022-10-15T08:04:25;98170.00;;;21.00
11321;BMP180;5715;48.234;14.320;2022-10-15T08:07:13;98172.00;;;21.00
11321;BMP180;5715;48.234;14.320;2022-10-15T08:10:01;98166.00;;;20.90
11321;BMP180;5715;48.234;14.320;2022-10-15T08:12:48;98178.00;;;20.80
11321;BMP180;5715;48.234;14.320;2022-10-15T08:15:41;98176.00;;;20.70
11321;BMP180;5715;48.234;14.320;2022-10-15T08:18:29;98177.00;;;20.90
11321;BMP180;5715;48.234;14.320;2022-10-15T08:21:16;98177.00;;;20.70
11321;BMP180;5715;48.234;14.320;2022-10-15T08:24:04;98171.00;;;20.40
11321;BMP180;5715;48.234;14.320;2022-10-15T08:26:52;98170.00;;;20.60
11321;BMP180;5715;48.234;14.320;2022-10-15T08:29:40;98179.00;;;20.80
11321;BMP180;5715;48.234;14.320;2022-10-15T08:32:27;98186.00;;;20.80
11321;BMP180;5715;48.234;14.320;2022-10-15T08:35:14;98181.00;;;20.80
11321;BMP180;5715;48.234;14.320;2022-10-15T08:38:02;98188.00;;;20.80
11321;BMP180;5715;48.234;14.320;2022-10-15T08:40:56;98189.00;;;20.80
11321;BMP180;5715;48.234;14.320;2022-10-15T08:43:46;98188.00;;;20.70
11321;BMP180;5715;48.234;14.320;2022-10-15T08:46:44;98193.00;;;20.80
11321;BMP180;5715;48.234;14.320;2022-10-15T08:49:51;98195.00;;;21.00
11321;BMP180;5715;48.234;14.320;2022-10-15T08:52:46;98204.00;;;21.00
11321;BMP180;5715;48.234;14.320;2022-10-15T08:55:39;98201.00;;;20.90
11321;BMP180;5715;48.234;14.320;2022-10-15T09:07:51;98213.00;;;20.80
11321;BMP180;5715;48.234;14.320;2022-10-15T09:10:52;98207.00;;;20.70
11321;BMP180;5715;48.234;14.320;2022-10-15T09:13:43;98211.00;;;20.80
11321;BMP180;5715;48.234;14.320;2022-10-15T09:16:37;98220.00;;;20.80
11321;BMP180;5715;48.234;14.320;2022-10-15T09:19:28;98211.00;;;20.80
11321;BMP180;5715;48.234;14.320;2022-10-15T09:22:23;98212.00;;;21.00
11321;BMP180;5715;48.234;14.320;2022-10-15T09:25:19;98214.00;;;21.10
11321;BMP180;5715;48.234;14.320;2022-10-15T09:28:16;98212.00;;;21.10
11321;BMP180;5715;48.234;14.320;2022-10-15T09:31:09;98222.00;;;21.10
11321;BMP180;5715;48.234;14.320;2022-10-15T09:34:28;98230.00;;;21.20
11321;BMP180;5715;48.234;14.320;2022-10-15T09:37:28;98225.00;;;21.10
11321;BMP180;5715;48.234;14.320;2022-10-15T09:43:48;98239.00;;;21.20
11321;BMP180;5715;48.234;14.320;2022-10-15T09:46:44;98229.00;;;21.00
11321;BMP180;5715;48.234;14.320;2022-10-15T09:49:32;98234.00;;;21.20
11321;BMP180;5715;48.234;14.320;2022-10-15T09:52:39;98232.00;;;21.30
11321;BMP180;5715;48.234;14.320;2022-10-15T09:55:55;98242.00;;;21.20
11321;BMP180;5715;48.234;14.320;2022-10-15T09:58:57;98243.00;;;21.50
11321;BMP180;5715;48.234;14.320;2022-10-15T10:02:17;98237.00;;;21.40
11321;BMP180;5715;48.234;14.320;2022-10-15T10:05:37;98242.00;;;21.60
11321;BMP180;5715;48.234;14.320;2022-10-15T10:08:33;98243.00;;;21.50
11321;BMP180;5715;48.234;14.320;2022-10-15T10:11:23;98252.00;;;21.50
11321;BMP180;5715;48.234;14.320;2022-10-15T10:14:43;98256.00;;;21.50
11321;BMP180;5715;48.234;14.320;2022-10-15T10:17:33;98260.00;;;21.40
11321;BMP180;5715;48.234;14.320;2022-10-15T10:20:24;98254.00;;;21.30
11321;BMP180;5715;48.234;14.320;2022-10-15T10:23:45;98255.00;;;21.60
11321;BMP180;5715;48.234;14.320;2022-10-15T10:26:34;98251.00;;;21.70
11321;BMP180;5715;48.234;14.320;2022-10-15T10:29:24;98255.00;;;21.80
11321;BMP180;5715;48.234;14.320;2022-10-15T10:32:32;98271.00;;;21.70
11321;BMP180;5715;48.234;14.320;2022-10-15T10:35:33;98269.00;;;21.70
11321;BMP180;5715;48.234;14.320;2022-10-15T10:38:29;98258.00;;;21.80
11321;BMP180;5715;48.234;14.320;2022-10-15T10:41:17;98261.00;;;21.70
11321;BMP180;5715;48.234;14.320;2022-10-15T10:44:30;98259.00;;;21.60
11321;BMP180;5715;48.234;14.320;2022-10-15T10:47:19;98266.00;;;21.50
11321;BMP180;5715;48.234;14.320;2022-10-15T10:50:39;98269.00;;;21.60
11321;BMP180;5715;48.234;14.320;2022-10-15T10:53:27;98269.00;;;21.60
11321;BMP180;5715;48.234;14.320;2022-10-15T10:56:21;98267.00;;;21.80
11321;BMP180;5715;48.234;14.320;2022-10-15T10:59:26;98286.00;;;21.80
11321;BMP180;5715;48.234;14.320;2022-10-15T11:02:14;98279.00;;;21.80
11321;BMP180;5715;48.234;14.320;2022-10-15T11:05:02;98283.00;;;21.90
11321;BMP180;5715;48.234;14.320;2022-10-15T11:08:25;98271.00;;;22.00
11321;BMP180;5715;48.234;14.320;2022-10-15T11:18:30;98279.00;;;22.20
11321;BMP180;5715;48.234;14.320;2022-10-15T11:24:43;98271.00;;;21.60
11321;BMP180;5715;48.234;14.320;2022-10-15T11:27:51;98269.00;;;21.60
11321;BMP180;5715;48.234;14.320;2022-10-15T11:31:09;98265.00;;;22.30
11321;BMP180;5715;48.234;14.320;2022-10-15T11:47:25;98275.00;;;22.30
11321;BMP180;5715;48.234;14.320;2022-10-15T11:50:31;98270.00;;;22.70
11321;BMP180;5715;48.234;14.320;2022-10-15T11:57:18;98278.00;;;22.60
11321;BMP180;5715;48.234;14.320;2022-10-15T12:00:38;98278.00;;;22.20
11321;BMP180;5715;48.234;14.320;2022-10-15T12:03:34;98272.00;;;22.70
11321;BMP180;5715;48.234;14.320;2022-10-15T12:06:30;98274.00;;;22.30
11321;BMP180;5715;48.234;14.320;2022-10-15T12:09:34;98272.00;;;22.80
11321;BMP180;5715;48.234;14.320;2022-10-15T12:16:09;98266.00;;;22.90
11321;BMP180;5715;48.234;14.320;2022-10-15T12:19:20;98263.00;;;23.00
11321;BMP180;5715;48.234;14.320;2022-10-15T12:22:09;98268.00;;;22.60
11321;BMP180;5715;48.234;14.320;2022-10-15T12:24:58;98272.00;;;22.40
11321;BMP180;5715;48.234;14.320;2022-10-15T12:27:58;98278.00;;;22.10
11321;BMP180;5715;48.234;14.320;2022-10-15T12:30:58;98274.00;;;21.30
11321;BMP180;5715;48.234;14.320;2022-10-15T12:33:54;98288.00;;;21.10
11321;BMP180;5715;48.234;14.320;2022-10-15T12:36:42;98295.00;;;20.90
11321;BMP180;5715;48.234;14.320;2022-10-15T12:39:30;98289.00;;;21.30
11321;BMP180;5715;48.234;14.320;2022-10-15T12:42:39;98289.00;;;22.10
11321;BMP180;5715;48.234;14.320;2022-10-15T12:45:37;98282.00;;;22.40
11321;BMP180;5715;48.234;14.320;2022-10-15T12:48:41;98295.00;;;22.60
11321;BMP180;5715;48.234;14.320;2022-10-15T12:51:29;98280.00;;;22.80
11321;BMP180;5715;48.234;14.320;2022-10-15T12:54:41;98283.00;;;22.90
11321;BMP180;5715;48.234;14.320;2022-10-15T13:00:29;98284.00;;;23.40
11321;BMP180;5715;48.234;14.320;2022-10-15T13:03:31;98287.00;;;23.60
11321;BMP180;5715;48.234;14.320;2022-10-15T13:11:59;98268.00;;;23.90
11321;BMP180;5715;48.234;14.320;2022-10-15T13:14:55;98262.00;;;24.10
11321;BMP180;5715;48.234;14.320;2022-10-15T13:17:44;98269.00;;;24.40
11321;BMP180;5715;48.234;14.320;2022-10-15T13:20:36;98264.00;;;24.70
11321;BMP180;5715;48.234;14.320;2022-10-15T13:23:33;98255.00;;;25.20
11321;BMP180;5715;48.234;14.320;2022-10-15T13:26:25;98254.00;;;25.70
11321;BMP180;5715;48.234;14.320;2022-10-15T13:29:25;98261.00;;;25.60
11321;BMP180;5715;48.234;14.320;2022-10-15T13:32:13;98255.00;;;25.90
11321;BMP180;5715;48.234;14.320;2022-10-15T13:35:09;98264.00;;;25.90
11321;BMP180;5715;48.234;14.320;2022-10-15T13:37:59;98267.00;;;25.80
11321;BMP180;5715;48.234;14.320;2022-10-15T13:40:52;98273.00;;;25.50
11321;BMP180;5715;48.234;14.320;2022-10-15T13:43:51;98283.00;;;25.30
11321;BMP180;5715;48.234;14.320;2022-10-15T13:46:41;98280.00;;;25.30
11321;BMP180;5715;48.234;14.320;2022-10-15T13:49:28;98279.00;;;25.20
11321;BMP180;5715;48.234;14.320;2022-10-15T13:52:16;98272.00;;;24.90
11321;BMP180;5715;48.234;14.320;2022-10-15T13:55:20;98269.00;;;25.00
11321;BMP180;5715;48.234;14.320;2022-10-15T13:58:27;98264.00;;;24.70
11321;BMP180;5715;48.234;14.320;2022-10-15T14:01:23;98271.00;;;24.80
11321;BMP180;5715;48.234;14.320;2022-10-15T14:04:21;98270.00;;;24.70
11321;BMP180;5715;48.234;14.320;2022-10-15T14:07:23;98269.00;;;24.70
11321;BMP180;5715;48.234;14.320;2022-10-15T14:10:14;98267.00;;;24.70
11321;BMP180;5715;48.234;14.320;2022-10-15T14:13:01;98272.00;;;24.80
11321;BMP180;5715;48.234;14.320;2022-10-15T14:21:52;98266.00;;;25.30
11321;BMP180;5715;48.234;14.320;2022-10-15T14:24:40;98272.00;;;25.30
11321;BMP180;5715;48.234;14.320;2022-10-15T14:27:28;98281.00;;;25.10
11321;BMP180;5715;48.234;14.320;2022-10-15T14:30:33;98274.00;;;25.20
11321;BMP180;5715;48.234;14.320;2022-10-15T14:36:26;98285.00;;;24.90
11321;BMP180;5715;48.234;14.320;2022-10-15T14:39:33;98275.00;;;24.80
11321;BMP180;5715;48.234;14.320;2022-10-15T14:42:31;98269.00;;;25.00
11321;BMP180;5715;48.234;14.320;2022-10-15T14:45:26;98272.00;;;25.10
11321;BMP180;5715;48.234;14.320;2022-10-15T14:48:30;98274.00;;;25.10
11321;BMP180;5715;48.234;14.320;2022-10-15T14:51:24;98271.00;;;25.10
11321;BMP180;5715;48.234;14.320;2022-10-15T14:54:21;98282.00;;;24.80
11321;BMP180;5715;48.234;14.320;2022-10-15T14:57:24;98285.00;;;24.70
11321;BMP180;5715;48.234;14.320;2022-10-15T15:00:26;98286.00;;;24.90
11321;BMP180;5715;48.234;14.320;2022-10-15T15:03:20;98283.00;;;24.90
11321;BMP180;5715;48.234;14.320;2022-10-15T15:06:08;98289.00;;;25.10
11321;BMP180;5715;48.234;14.320;2022-10-15T15:08:56;98290.00;;;25.00
11321;BMP180;5715;48.234;14.320;2022-10-15T15:11:44;98283.00;;;25.10
11321;BMP180;5715;48.234;14.320;2022-10-15T15:14:32;98291.00;;;25.00
11321;BMP180;5715;48.234;14.320;2022-10-15T15:17:26;98286.00;;;25.10
11321;BMP180;5715;48.234;14.320;2022-10-15T15:20:16;98283.00;;;25.20
11321;BMP180;5715;48.234;14.320;2022-10-15T15:23:11;98280.00;;;25.30
11321;BMP180;5715;48.234;14.320;2022-10-15T15:26:00;98287.00;;;25.30
11321;BMP180;5715;48.234;14.320;2022-10-15T15:28:49;98281.00;;;25.20
11321;BMP180;5715;48.234;14.320;2022-10-15T15:31:36;98283.00;;;25.00
11321;BMP180;5715;48.234;14.320;2022-10-15T15:34:24;98282.00;;;25.00
11321;BMP180;5715;48.234;14.320;2022-10-15T15:37:14;98285.00;;;25.00
11321;BMP180;5715;48.234;14.320;2022-10-15T15:40:02;98293.00;;;24.70
11321;BMP180;5715;48.234;14.320;2022-10-15T15:42:50;98300.00;;;24.70
11321;BMP180;5715;48.234;14.320;2022-10-15T15:45:37;98300.00;;;24.40
11321;BMP180;5715;48.234;14.320;2022-10-15T15:48:25;98309.00;;;24.40
11321;BMP180;5715;48.234;14.320;2022-10-15T15:51:26;98307.00;;;24.30
11321;BMP180;5715;48.234;14.320;2022-10-15T15:54:14;98309.00;;;24.00
11321;BMP180;5715;48.234;14.320;2022-10-15T15:57:02;98313.00;;;24.00
11321;BMP180;5715;48.234;14.320;2022-10-15T15:59:49;98312.00;;;23.90
11321;BMP180;5715;48.234;14.320;2022-10-15T16:02:37;98313.00;;;23.60
11321;BMP180;5715;48.234;14.320;2022-10-15T16:05:25;98316.00;;;23.70
11321;BMP180;5715;48.234;14.320;2022-10-15T16:08:13;98316.00;;;23.60
11321;BMP180;5715;48.234;14.320;2022-10-15T16:11:02;98323.00;;;23.80
11321;BMP180;5715;48.234;14.320;2022-10-15T16:13:50;98323.00;;;23.50
11321;BMP180;5715;48.234;14.320;2022-10-15T16:16:38;98334.00;;;23.70
11321;BMP180;5715;48.234;14.320;2022-10-15T16:19:26;98337.00;;;23.50
11321;BMP180;5715;48.234;14.320;2022-10-15T16:22:13;98338.00;;;23.50
11321;BMP180;5715;48.234;14.320;2022-10-15T16:25:02;98335.00;;;23.70
11321;BMP180;5715;48.234;14.320;2022-10-15T16:27:49;98335.00;;;23.60
11321;BMP180;5715;48.234;14.320;2022-10-15T16:30:38;98348.00;;;23.50
11321;BMP180;5715;48.234;14.320;2022-10-15T16:33:25;98352.00;;;23.60
11321;BMP180;5715;48.234;14.320;2022-10-15T16:36:14;98360.00;;;23.50
11321;BMP180;5715;48.234;14.320;2022-10-15T16:39:03;98366.00;;;23.50
11321;BMP180;5715;48.234;14.320;2022-10-15T16:41:50;98373.00;;;23.60
11321;BMP180;5715;48.234;14.320;2022-10-15T16:44:38;98358.00;;;23.60
11321;BMP180;5715;48.234;14.320;2022-10-15T16:47:26;98365.00;;;23.40
11321;BMP180;5715;48.234;14.320;2022-10-15T16:50:14;98363.00;;;23.30
11321;BMP180;5715;48.234;14.320;2022-10-15T16:53:02;98362.00;;;23.40
11321;BMP180;5715;48.234;14.320;2022-10-15T16:55:49;98361.00;;;23.40
11321;BMP180;5715;48.234;14.320;2022-10-15T16:58:37;98373.00;;;23.20
11321;BMP180;5715;48.234;14.320;2022-10-15T17:01:28;98383.00;;;23.00
11321;BMP180;5715;48.234;14.320;2022-10-15T17:04:16;98392.00;;;22.90
11321;BMP180;5715;48.234;14.320;2022-10-15T17:07:04;98387.00;;;23.00
11321;BMP180;5715;48.234;14.320;2022-10-15T17:09:51;98388.00;;;23.00
11321;BMP180;5715;48.234;14.320;2022-10-15T17:12:39;98390.00;;;23.00
11321;BMP180;5715;48.234;14.320;2022-10-15T17:15:26;98402.00;;;22.90
11321;BMP180;5715;48.234;14.320;2022-10-15T17:18:14;98390.00;;;22.70
11321;BMP180;5715;48.234;14.320;2022-10-15T17:21:01;98398.00;;;22.70
11321;BMP180;5715;48.234;14.320;2022-10-15T17:23:57;98394.00;;;22.80
11321;BMP180;5715;48.234;14.320;2022-10-15T17:26:46;98403.00;;;22.50
11321;BMP180;5715;48.234;14.320;2022-10-15T17:29:33;98397.00;;;22.70
11321;BMP180;5715;48.234;14.320;2022-10-15T17:32:21;98403.00;;;22.50
11321;BMP180;5715;48.234;14.320;2022-10-15T17:35:09;98405.00;;;22.40
11321;BMP180;5715;48.234;14.320;2022-10-15T17:37:57;98402.00;;;21.90
11321;BMP180;5715;48.234;14.320;2022-10-15T17:40:45;98404.00;;;22.20
11321;BMP180;5715;48.234;14.320;2022-10-15T17:43:33;98412.00;;;22.20
11321;BMP180;5715;48.234;14.320;2022-10-15T17:46:28;98402.00;;;22.30
11321;BMP180;5715;48.234;14.320;2022-10-15T17:49:16;98415.00;;;21.90
11321;BMP180;5715;48.234;14.320;2022-10-15T17:52:05;98416.00;;;21.70